Time,TemperatureF,DewpointF,PressureIn,WindDirection,WindDirectionDegrees,WindSpeedMPH,WindSpeedGustMPH,Humidity,HourlyPrecipIn,Conditions,Clouds,dailyrainin,SoftwareType,DateUTC
2013-03-28 00:07:00,56.1,52.9,30.06,West,280,0.0,3.0,89,0.00,,,0.00,meteohub,2013-03-28 07:07:00,
2013-03-28 00:17:00,55.9,52.7,30.06,West,280,4.0,6.0,89,0.00,,,0.00,meteohub,2013-03-28 07:17:00,
2013-03-28 00:22:00,55.9,52.7,30.06,West,280,0.0,6.0,89,0.00,,,0.00,meteohub,2013-03-28 07:22:00,
2013-03-28 00:27:00,55.8,52.9,30.06,West,280,1.0,6.0,90,0.00,,,0.00,meteohub,2013-03-28 07:27:00,
2013-03-28 00:32:00,55.9,53.4,30.06,West,280,1.0,5.0,91,0.00,,,0.00,meteohub,2013-03-28 07:32:00,
2013-03-28 00:42:00,55.9,53.1,30.06,West,280,0.0,4.0,90,0.00,,,0.00,meteohub,2013-03-28 07:42:00,
2013-03-28 00:47:00,55.9,53.1,30.06,West,280,0.0,6.0,90,0.00,,,0.00,meteohub,2013-03-28 07:47:00,
2013-03-28 00:52:00,55.9,53.1,30.06,WNW,292,0.0,6.0,90,0.00,,,0.00,meteohub,2013-03-28 07:52:00,
2013-03-28 00:57:00,56.1,53.2,30.06,West,280,1.0,4.0,90,0.00,,,0.00,meteohub,2013-03-28 07:57:00,
2013-03-28 01:02:00,56.1,53.2,30.06,West,280,0.0,4.0,90,0.00,,,0.00,meteohub,2013-03-28 08:02:00,
2013-03-28 01:07:00,56.1,53.2,30.06,West,280,0.0,1.0,90,0.00,,,0.00,meteohub,2013-03-28 08:07:00,
2013-03-28 01:17:00,56.3,53.1,30.06,West,280,0.0,4.0,89,0.00,,,0.00,meteohub,2013-03-28 08:17:00,
2013-03-28 01:22:00,56.5,53.2,30.06,West,280,0.0,4.0,89,0.00,,,0.00,meteohub,2013-03-28 08:22:00,
2013-03-28 01:27:00,56.5,53.2,30.06,West,280,3.0,4.0,89,0.00,,,0.00,meteohub,2013-03-28 08:27:00,
2013-03-28 01:32:00,56.5,53.2,30.06,West,280,0.0,4.0,89,0.00,,,0.00,meteohub,2013-03-28 08:32:00,
2013-03-28 01:37:00,56.5,52.9,30.06,West,280,2.0,4.0,88,0.00,,,0.00,meteohub,2013-03-28 08:37:00,
2013-03-28 01:42:00,56.5,52.9,30.06,West,280,2.0,4.0,88,0.00,,,0.00,meteohub,2013-03-28 08:42:00,
2013-03-28 01:47:00,56.5,52.9,30.06,West,280,0.0,4.0,88,0.00,,,0.00,meteohub,2013-03-28 08:47:00,
2013-03-28 01:52:00,56.5,52.9,30.06,West,280,2.0,4.0,88,0.00,,,0.00,meteohub,2013-03-28 08:52:00,
2013-03-28 01:57:00,56.5,52.9,30.06,West,280,2.0,3.0,88,0.00,,,0.00,meteohub,2013-03-28 08:57:00,
2013-03-28 02:02:00,56.5,52.9,30.06,West,280,0.0,4.0,88,0.00,,,0.00,meteohub,2013-03-28 09:02:00,
2013-03-28 02:07:00,56.5,52.9,30.06,West,280,1.0,4.0,88,0.00,,,0.00,meteohub,2013-03-28 09:07:00,
2013-03-28 02:17:00,56.5,52.9,30.06,West,280,1.0,4.0,88,0.00,,,0.00,meteohub,2013-03-28 09:17:00,
2013-03-28 02:27:00,56.7,53.1,30.06,West,280,0.0,3.0,88,0.00,,,0.00,meteohub,2013-03-28 09:27:00,
2013-03-28 02:32:00,56.7,53.1,30.06,West,280,1.0,3.0,88,0.00,,,0.00,meteohub,2013-03-28 09:32:00,
2013-03-28 02:37:00,56.8,53.6,30.06,West,280,0.0,3.0,89,0.00,,,0.00,meteohub,2013-03-28 09:37:00,
2013-03-28 02:42:00,56.7,53.1,30.06,West,280,2.0,3.0,88,0.00,,,0.00,meteohub,2013-03-28 09:42:00,
2013-03-28 02:52:00,56.3,52.9,30.06,West,280,0.0,6.0,88,0.00,,,0.00,meteohub,2013-03-28 09:52:00,
2013-03-28 02:57:00,56.5,52.9,30.05,West,280,0.0,7.0,88,0.00,,,0.00,meteohub,2013-03-28 09:57:00,
2013-03-28 03:07:00,56.7,53.1,30.05,West,280,2.0,7.0,88,0.00,,,0.00,meteohub,2013-03-28 10:07:00,
2013-03-28 03:12:00,56.7,53.1,30.05,West,280,0.0,3.0,88,0.00,,,0.00,meteohub,2013-03-28 10:12:00,
2013-03-28 03:17:00,56.5,52.9,30.05,West,280,1.0,4.0,88,0.00,,,0.00,meteohub,2013-03-28 10:17:00,
2013-03-28 03:22:00,56.3,52.9,30.05,West,280,1.0,4.0,88,0.00,,,0.00,meteohub,2013-03-28 10:22:00,
2013-03-28 03:32:00,56.1,52.9,30.05,West,280,1.0,4.0,89,0.00,,,0.00,meteohub,2013-03-28 10:32:00,
2013-03-28 03:37:00,56.3,53.1,30.05,West,280,0.0,1.0,89,0.00,,,0.00,meteohub,2013-03-28 10:37:00,
2013-03-28 03:47:00,56.5,53.2,30.05,West,280,0.0,4.0,89,0.00,,,0.00,meteohub,2013-03-28 10:47:00,
2013-03-28 03:52:00,56.5,53.2,30.05,West,280,0.0,4.0,89,0.00,,,0.00,meteohub,2013-03-28 10:52:00,
2013-03-28 03:57:00,56.5,52.9,30.05,West,280,0.0,4.0,88,0.00,,,0.00,meteohub,2013-03-28 10:57:00,
2013-03-28 04:02:00,56.7,53.4,30.05,West,280,0.0,1.0,89,0.00,,,0.00,meteohub,2013-03-28 11:02:00,
2013-03-28 04:12:00,57.0,53.4,30.05,West,280,0.0,0.0,88,0.00,,,0.00,meteohub,2013-03-28 11:12:00,
2013-03-28 04:17:00,57.0,53.4,30.05,West,280,0.0,0.0,88,0.00,,,0.00,meteohub,2013-03-28 11:17:00,
2013-03-28 04:22:00,57.4,53.6,30.05,West,280,0.0,0.0,87,0.00,,,0.00,meteohub,2013-03-28 11:22:00,
2013-03-28 04:27:00,57.0,53.2,30.04,West,281,1.0,2.0,87,0.00,,,0.00,meteohub,2013-03-28 11:27:00,
2013-03-28 04:37:00,56.7,52.9,30.05,West,281,0.0,3.0,87,0.00,,,0.00,meteohub,2013-03-28 11:37:00,
2013-03-28 04:42:00,56.7,53.4,30.05,West,281,0.0,3.0,89,0.00,,,0.00,meteohub,2013-03-28 11:42:00,
2013-03-28 04:52:00,56.7,53.1,30.06,West,281,0.0,0.0,88,0.00,,,0.00,meteohub,2013-03-28 11:52:00,
2013-03-28 04:57:00,56.7,53.4,30.06,West,281,0.0,0.0,89,0.00,,,0.00,meteohub,2013-03-28 11:57:00,
2013-03-28 05:07:00,57.0,53.4,30.06,West,281,0.0,1.0,88,0.00,,,0.00,meteohub,2013-03-28 12:07:00,
2013-03-28 05:12:00,56.8,53.1,30.06,West,281,0.0,1.0,87,0.00,,,0.00,meteohub,2013-03-28 12:12:00,
2013-03-28 05:17:00,56.8,53.1,30.06,West,281,0.0,0.0,87,0.00,,,0.00,meteohub,2013-03-28 12:17:00,
2013-03-28 05:22:00,56.8,53.1,30.06,West,281,0.0,1.0,87,0.00,,,0.00,meteohub,2013-03-28 12:22:00,
2013-03-28 05:32:00,56.7,53.1,30.05,West,281,0.0,2.0,88,0.00,,,0.00,meteohub,2013-03-28 12:32:00,
2013-03-28 05:37:00,56.7,53.4,30.06,West,281,0.0,2.0,89,0.00,,,0.00,meteohub,2013-03-28 12:37:00,
2013-03-28 05:42:00,56.5,52.9,30.06,West,281,0.0,2.0,88,0.00,,,0.00,meteohub,2013-03-28 12:42:00,
2013-03-28 05:47:00,56.5,53.2,30.06,West,280,0.0,2.0,89,0.00,,,0.00,meteohub,2013-03-28 12:47:00,
2013-03-28 05:52:00,56.5,52.9,30.06,West,280,0.0,2.0,88,0.00,,,0.00,meteohub,2013-03-28 12:52:00,
2013-03-28 05:57:00,56.1,52.7,30.06,West,280,0.0,2.0,88,0.00,,,0.00,meteohub,2013-03-28 12:57:00,
2013-03-28 06:02:00,56.1,52.9,30.06,West,280,0.0,1.0,89,0.00,,,0.00,meteohub,2013-03-28 13:02:00,
2013-03-28 06:07:00,56.1,52.9,30.06,West,280,1.0,1.0,89,0.00,,,0.00,meteohub,2013-03-28 13:07:00,
2013-03-28 06:17:00,56.1,52.9,30.06,West,280,0.0,1.0,89,0.00,,,0.00,meteohub,2013-03-28 13:17:00,
2013-03-28 06:22:00,56.1,52.9,30.06,West,280,0.0,1.0,89,0.00,,,0.00,meteohub,2013-03-28 13:22:00,
2013-03-28 06:27:00,56.1,52.9,30.06,West,280,0.0,1.0,89,0.00,,,0.00,meteohub,2013-03-28 13:27:00,
2013-03-28 06:32:00,56.1,52.9,30.06,West,280,0.0,1.0,89,0.00,,,0.00,meteohub,2013-03-28 13:32:00,
2013-03-28 06:37:00,56.1,52.9,30.06,West,280,0.0,1.0,89,0.00,,,0.00,meteohub,2013-03-28 13:37:00,
2013-03-28 06:47:00,56.3,53.1,30.06,West,280,0.0,2.0,89,0.00,,,0.00,meteohub,2013-03-28 13:47:00,
2013-03-28 06:57:00,56.5,53.2,30.06,West,280,0.0,1.0,89,0.00,,,0.00,meteohub,2013-03-28 13:57:00,
2013-03-28 07:02:00,56.7,53.4,30.06,West,280,1.0,1.0,89,0.00,,,0.00,meteohub,2013-03-28 14:02:00,
2013-03-28 07:07:00,56.7,53.4,30.06,West,280,0.0,1.0,89,0.00,,,0.00,meteohub,2013-03-28 14:07:00,
2013-03-28 07:12:00,56.7,53.1,30.07,West,280,3.0,4.0,88,0.00,,,0.00,meteohub,2013-03-28 14:12:00,
2013-03-28 07:17:00,56.7,53.1,30.07,West,280,2.0,4.0,88,0.00,,,0.00,meteohub,2013-03-28 14:17:00,
2013-03-28 07:22:00,56.7,53.1,30.07,West,280,0.0,4.0,88,0.00,,,0.00,meteohub,2013-03-28 14:22:00,
2013-03-28 07:32:00,57.2,53.6,30.08,West,280,0.0,4.0,88,0.00,,,0.00,meteohub,2013-03-28 14:32:00,
2013-03-28 07:42:00,57.0,52.9,30.08,West,280,2.0,4.0,86,0.00,,,0.00,meteohub,2013-03-28 14:42:00,
2013-03-28 07:52:00,57.0,53.4,30.09,West,280,0.0,4.0,88,0.00,,,0.00,meteohub,2013-03-28 14:52:00,
2013-03-28 07:57:00,57.2,53.6,30.09,West,280,1.0,4.0,88,0.00,,,0.00,meteohub,2013-03-28 14:57:00,
2013-03-28 08:07:00,57.4,53.6,30.09,West,280,3.0,4.0,87,0.00,,,0.00,meteohub,2013-03-28 15:07:00,
2013-03-28 08:17:00,57.2,53.6,30.10,West,280,2.0,5.0,88,0.00,,,0.00,meteohub,2013-03-28 15:17:00,
2013-03-28 08:22:00,57.4,53.8,30.10,West,280,4.0,6.0,88,0.00,,,0.00,meteohub,2013-03-28 15:22:00,
2013-03-28 08:32:00,57.4,53.6,30.10,West,280,2.0,6.0,87,0.00,,,0.00,meteohub,2013-03-28 15:32:00,
2013-03-28 08:37:00,57.4,53.6,30.10,West,280,1.0,5.0,87,0.00,,,0.00,meteohub,2013-03-28 15:37:00,
2013-03-28 08:42:00,57.4,53.8,30.10,West,280,4.0,5.0,88,0.00,,,0.00,meteohub,2013-03-28 15:42:00,
2013-03-28 08:47:00,57.0,53.2,30.10,West,280,0.0,9.0,87,0.00,,,0.00,meteohub,2013-03-28 15:47:00,
2013-03-28 08:52:00,57.0,53.4,30.11,West,280,4.0,9.0,88,0.00,,,0.00,meteohub,2013-03-28 15:52:00,
2013-03-28 08:57:00,57.0,53.2,30.11,West,280,3.0,9.0,87,0.00,,,0.00,meteohub,2013-03-28 15:57:00,
2013-03-28 09:02:00,57.2,53.4,30.11,West,280,0.0,8.0,87,0.00,,,0.00,meteohub,2013-03-28 16:02:00,
2013-03-28 09:07:00,57.4,53.2,30.11,West,280,6.0,8.0,86,0.00,,,0.00,meteohub,2013-03-28 16:07:00,
2013-03-28 09:17:00,57.6,53.8,30.11,West,280,0.0,10.0,87,0.00,,,0.00,meteohub,2013-03-28 16:17:00,
2013-03-28 09:22:00,57.9,53.8,30.11,West,280,9.0,10.0,86,0.00,,,0.00,meteohub,2013-03-28 16:22:00,
2013-03-28 09:27:00,58.3,53.8,30.11,West,280,0.0,9.0,85,0.00,,,0.00,meteohub,2013-03-28 16:27:00,
2013-03-28 09:37:00,59.0,54.1,30.11,West,280,5.0,9.0,84,0.00,,,0.00,meteohub,2013-03-28 16:37:00,
2013-03-28 09:42:00,59.0,53.8,30.11,West,280,3.0,6.0,83,0.00,,,0.00,meteohub,2013-03-28 16:42:00,
2013-03-28 09:47:00,59.0,53.8,30.11,West,280,1.0,6.0,83,0.00,,,0.00,meteohub,2013-03-28 16:47:00,
2013-03-28 09:57:00,59.4,53.8,30.11,West,280,0.0,4.0,82,0.00,,,0.00,meteohub,2013-03-28 16:57:00,
2013-03-28 10:02:00,59.4,53.8,30.10,West,280,1.0,3.0,82,0.00,,,0.00,meteohub,2013-03-28 17:02:00,
2013-03-28 10:07:00,59.7,54.0,30.10,West,280,0.0,3.0,81,0.00,,,0.00,meteohub,2013-03-28 17:07:00,
2013-03-28 10:17:00,60.3,54.1,30.10,West,280,0.0,3.0,80,0.00,,,0.00,meteohub,2013-03-28 17:17:00,
2013-03-28 10:22:00,60.6,54.5,30.10,West,280,0.0,2.0,80,0.00,,,0.00,meteohub,2013-03-28 17:22:00,
2013-03-28 10:27:00,60.4,54.3,30.10,West,280,0.0,3.0,80,0.00,,,0.00,meteohub,2013-03-28 17:27:00,
2013-03-28 10:32:00,60.4,54.3,30.10,NE,36,1.0,3.0,80,0.00,,,0.00,meteohub,2013-03-28 17:32:00,
2013-03-28 10:37:00,60.6,54.5,30.10,North,355,2.0,3.0,80,0.00,,,0.00,meteohub,2013-03-28 17:37:00,
2013-03-28 10:42:00,60.8,54.3,30.10,ENE,61,2.0,7.0,79,0.00,,,0.00,meteohub,2013-03-28 17:42:00,
2013-03-28 10:52:00,60.6,54.5,30.10,North,9,7.0,7.0,80,0.00,,,0.00,meteohub,2013-03-28 17:52:00,
2013-03-28 11:02:00,60.4,54.3,30.10,North,0,0.0,8.0,80,0.00,,,0.00,meteohub,2013-03-28 18:02:00,
2013-03-28 11:12:00,61.3,54.9,30.10,NNW,340,3.0,7.0,79,0.00,,,0.00,meteohub,2013-03-28 18:12:00,
2013-03-28 11:17:00,61.9,55.2,30.11,North,5,7.0,7.0,79,0.00,,,0.00,meteohub,2013-03-28 18:17:00,
2013-03-28 11:22:00,61.3,54.5,30.11,North,5,2.0,7.0,78,0.00,,,0.00,meteohub,2013-03-28 18:22:00,
2013-03-28 11:27:00,62.1,55.0,30.11,North,350,4.0,7.0,78,0.00,,,0.00,meteohub,2013-03-28 18:27:00,
2013-03-28 11:32:00,62.6,54.5,30.11,ENE,60,0.0,7.0,75,0.00,,,0.00,meteohub,2013-03-28 18:32:00,
2013-03-28 11:42:00,63.3,54.5,30.11,ENE,62,0.0,5.0,73,0.00,,,0.00,meteohub,2013-03-28 18:42:00,
2013-03-28 11:47:00,63.7,54.5,30.11,ENE,62,2.0,5.0,72,0.00,,,0.00,meteohub,2013-03-28 18:47:00,
2013-03-28 11:52:00,63.5,54.3,30.11,ENE,61,0.0,5.0,72,0.00,,,0.00,meteohub,2013-03-28 18:52:00,
2013-03-28 12:02:00,63.3,54.1,30.11,NNE,28,5.0,5.0,72,0.00,,,0.00,meteohub,2013-03-28 19:02:00,
2013-03-28 12:07:00,63.3,54.1,30.11,ENE,63,1.0,5.0,72,0.00,,,0.00,meteohub,2013-03-28 19:07:00,
2013-03-28 12:17:00,64.0,53.6,30.11,ENE,62,0.0,5.0,69,0.00,,,0.00,meteohub,2013-03-28 19:17:00,
2013-03-28 12:22:00,63.9,54.0,30.11,ENE,61,0.0,4.0,70,0.00,,,0.00,meteohub,2013-03-28 19:22:00,
2013-03-28 12:32:00,64.6,54.5,30.10,NNE,29,2.0,5.0,70,0.00,,,0.00,meteohub,2013-03-28 19:32:00,
2013-03-28 12:37:00,65.1,55.0,30.10,NNE,31,0.0,5.0,70,0.00,,,0.00,meteohub,2013-03-28 19:37:00,
2013-03-28 12:47:00,64.9,52.9,30.11,ENE,64,4.0,4.0,65,0.00,,,0.00,meteohub,2013-03-28 19:47:00,
2013-03-28 12:52:00,64.9,52.9,30.11,ENE,63,2.0,5.0,65,0.00,,,0.00,meteohub,2013-03-28 19:52:00,
2013-03-28 12:57:00,65.5,53.1,30.11,ENE,64,5.0,5.0,64,0.00,,,0.00,meteohub,2013-03-28 19:57:00,
2013-03-28 13:02:00,64.8,52.7,30.11,ENE,64,5.0,5.0,65,0.00,,,0.00,meteohub,2013-03-28 20:02:00,
2013-03-28 13:12:00,65.3,53.2,30.11,ENE,64,0.0,7.0,65,0.00,,,0.00,meteohub,2013-03-28 20:12:00,
2013-03-28 13:17:00,66.0,53.1,30.11,ENE,64,0.0,5.0,63,0.00,,,0.00,meteohub,2013-03-28 20:17:00,
2013-03-28 13:27:00,66.2,55.4,30.10,West,281,1.0,8.0,68,0.00,,,0.00,meteohub,2013-03-28 20:27:00,
2013-03-28 13:37:00,66.6,54.9,30.10,West,281,0.0,5.0,66,0.00,,,0.00,meteohub,2013-03-28 20:37:00,
2013-03-28 13:42:00,66.7,55.0,30.10,West,281,2.0,5.0,66,0.00,,,0.00,meteohub,2013-03-28 20:42:00,
2013-03-28 13:47:00,67.3,54.7,30.10,ENE,63,1.0,4.0,64,0.00,,,0.00,meteohub,2013-03-28 20:47:00,
2013-03-28 13:52:00,66.9,54.9,30.10,ENE,65,1.0,5.0,65,0.00,,,0.00,meteohub,2013-03-28 20:52:00,
2013-03-28 13:57:00,66.6,55.6,30.10,West,281,1.0,5.0,68,0.00,,,0.00,meteohub,2013-03-28 20:57:00,
2013-03-28 14:02:00,66.7,55.4,30.10,WNW,286,2.0,5.0,67,0.00,,,0.00,meteohub,2013-03-28 21:02:00,
2013-03-28 14:07:00,66.4,55.0,30.10,West,281,2.0,4.0,67,0.00,,,0.00,meteohub,2013-03-28 21:07:00,
2013-03-28 14:17:00,65.1,54.7,30.10,West,281,3.0,9.0,69,0.00,,,0.00,meteohub,2013-03-28 21:17:00,
2013-03-28 14:22:00,64.4,54.3,30.10,West,281,1.0,9.0,70,0.00,,,0.00,meteohub,2013-03-28 21:22:00,
2013-03-28 14:27:00,64.0,54.1,30.10,West,281,5.0,6.0,70,0.00,,,0.00,meteohub,2013-03-28 21:27:00,
2013-03-28 14:32:00,62.8,54.0,30.10,West,281,4.0,7.0,73,0.00,,,0.00,meteohub,2013-03-28 21:32:00,
2013-03-28 14:42:00,62.1,53.6,30.10,West,280,0.0,7.0,74,0.00,,,0.00,meteohub,2013-03-28 21:42:00,
2013-03-28 14:47:00,62.2,54.1,30.09,West,281,1.0,7.0,75,0.00,,,0.00,meteohub,2013-03-28 21:47:00,
2013-03-28 14:52:00,62.4,54.0,30.09,West,281,2.0,7.0,74,0.00,,,0.00,meteohub,2013-03-28 21:52:00,
2013-03-28 14:57:00,63.1,54.7,30.09,West,281,2.0,7.0,74,0.00,,,0.00,meteohub,2013-03-28 21:57:00,
2013-03-28 15:02:00,63.9,54.7,30.09,West,281,4.0,7.0,72,0.00,,,0.00,meteohub,2013-03-28 22:02:00,
2013-03-28 15:12:00,63.9,54.3,30.09,WNW,288,2.0,8.0,71,0.00,,,0.00,meteohub,2013-03-28 22:12:00,
2013-03-28 15:17:00,63.7,54.5,30.09,West,281,3.0,10.0,72,0.00,,,0.00,meteohub,2013-03-28 22:17:00,
2013-03-28 15:27:00,63.9,54.3,30.08,West,281,1.0,10.0,71,0.00,,,0.00,meteohub,2013-03-28 22:27:00,
2013-03-28 15:32:00,64.0,54.5,30.08,West,281,2.0,6.0,71,0.00,,,0.00,meteohub,2013-03-28 22:32:00,
2013-03-28 15:37:00,63.7,54.1,30.08,West,281,1.0,6.0,71,0.00,,,0.00,meteohub,2013-03-28 22:37:00,
2013-03-28 15:42:00,63.3,54.1,30.08,West,281,2.0,8.0,72,0.00,,,0.00,meteohub,2013-03-28 22:42:00,
2013-03-28 15:47:00,63.7,54.1,30.08,West,281,2.0,8.0,71,0.00,,,0.00,meteohub,2013-03-28 22:47:00,
2013-03-28 15:57:00,63.7,54.1,30.08,West,281,1.0,5.0,71,0.00,,,0.00,meteohub,2013-03-28 22:57:00,
2013-03-28 16:02:00,64.0,54.5,30.08,West,281,3.0,7.0,71,0.00,,,0.00,meteohub,2013-03-28 23:02:00,
2013-03-28 16:07:00,64.4,54.3,30.08,West,281,2.0,7.0,70,0.00,,,0.00,meteohub,2013-03-28 23:07:00,
2013-03-28 16:17:00,64.0,54.1,30.08,West,281,4.0,6.0,70,0.00,,,0.00,meteohub,2013-03-28 23:17:00,
2013-03-28 16:22:00,63.7,53.8,30.08,West,281,4.0,6.0,70,0.00,,,0.00,meteohub,2013-03-28 23:22:00,
2013-03-28 16:32:00,63.7,54.1,30.08,NW,310,5.0,7.0,71,0.00,,,0.00,meteohub,2013-03-28 23:32:00,
2013-03-28 16:37:00,63.9,54.3,30.08,West,265,7.0,7.0,71,0.00,,,0.00,meteohub,2013-03-28 23:37:00,
2013-03-28 16:42:00,63.9,54.0,30.08,NW,306,9.0,10.0,70,0.00,,,0.00,meteohub,2013-03-28 23:42:00,
2013-03-28 16:47:00,63.3,53.4,30.08,SSW,199,2.0,10.0,70,0.00,,,0.00,meteohub,2013-03-28 23:47:00,
2013-03-28 16:52:00,63.3,53.8,30.08,NW,306,7.0,10.0,71,0.00,,,0.00,meteohub,2013-03-28 23:52:00,
2013-03-28 16:57:00,63.1,53.6,30.08,WSW,244,6.0,10.0,71,0.00,,,0.00,meteohub,2013-03-28 23:57:00,
2013-03-28 17:02:00,63.3,53.8,30.08,West,260,5.0,11.0,71,0.00,,,0.00,meteohub,2013-03-29 00:02:00,
2013-03-28 17:07:00,63.1,53.6,30.08,West,280,1.0,11.0,71,0.00,,,0.00,meteohub,2013-03-29 00:07:00,
2013-03-28 17:17:00,62.4,52.9,30.08,West,279,5.0,11.0,71,0.00,,,0.00,meteohub,2013-03-29 00:17:00,
2013-03-28 17:27:00,62.2,53.1,30.08,WNW,288,3.0,10.0,72,0.00,,,0.00,meteohub,2013-03-29 00:27:00,
2013-03-28 17:32:00,61.9,53.1,30.08,WNW,294,5.0,10.0,73,0.00,,,0.00,meteohub,2013-03-29 00:32:00,
2013-03-28 17:42:00,61.9,53.4,30.08,NW,311,6.0,10.0,74,0.00,,,0.00,meteohub,2013-03-29 00:42:00,
2013-03-28 17:47:00,62.1,53.2,30.08,SW,215,3.0,10.0,73,0.00,,,0.00,meteohub,2013-03-29 00:47:00,
2013-03-28 17:52:00,61.9,53.1,30.08,WSW,247,11.0,11.0,73,0.00,,,0.00,meteohub,2013-03-29 00:52:00,
2013-03-28 17:57:00,61.7,52.9,30.08,WNW,292,5.0,11.0,73,0.00,,,0.00,meteohub,2013-03-29 00:57:00,
2013-03-28 18:07:00,61.3,52.7,30.08,West,281,7.0,12.0,73,0.00,,,0.00,meteohub,2013-03-29 01:07:00,
2013-03-28 18:17:00,61.2,52.9,30.08,NNW,328,3.0,14.0,74,0.00,,,0.00,meteohub,2013-03-29 01:17:00,
2013-03-28 18:27:00,61.3,53.1,30.08,NW,313,8.0,10.0,74,0.00,,,0.00,meteohub,2013-03-29 01:27:00,
2013-03-28 18:32:00,60.8,52.5,30.09,West,279,6.0,10.0,74,0.00,,,0.00,meteohub,2013-03-29 01:32:00,
2013-03-28 18:37:00,60.4,52.5,30.09,NW,317,4.0,11.0,75,0.00,,,0.00,meteohub,2013-03-29 01:37:00,
2013-03-28 18:47:00,60.1,52.5,30.08,West,263,7.0,11.0,76,0.00,,,0.00,meteohub,2013-03-29 01:47:00,
2013-03-28 18:57:00,59.7,52.5,30.09,WNW,292,1.0,13.0,77,0.00,,,0.00,meteohub,2013-03-29 01:57:00,
2013-03-28 19:02:00,59.7,52.5,30.09,WSW,250,5.0,13.0,77,0.00,,,0.00,meteohub,2013-03-29 02:02:00,
2013-03-28 19:07:00,59.5,52.3,30.09,ENE,61,7.0,13.0,77,0.00,,,0.00,meteohub,2013-03-29 02:07:00,
2013-03-28 19:17:00,58.6,51.8,30.09,NW,313,8.0,13.0,78,0.00,,,0.00,meteohub,2013-03-29 02:17:00,
2013-03-28 19:27:00,57.9,51.8,30.09,North,355,4.0,11.0,80,0.00,,,0.00,meteohub,2013-03-29 02:27:00,
2013-03-28 19:32:00,57.7,51.6,30.09,NW,319,7.0,13.0,80,0.00,,,0.00,meteohub,2013-03-29 02:32:00,
2013-03-28 19:37:00,57.6,51.8,30.09,WNW,294,3.0,13.0,81,0.00,,,0.00,meteohub,2013-03-29 02:37:00,
2013-03-28 19:42:00,57.4,51.6,30.09,WNW,292,6.0,10.0,81,0.00,,,0.00,meteohub,2013-03-29 02:42:00,
2013-03-28 19:52:00,57.0,51.6,30.10,WNW,284,5.0,9.0,82,0.00,,,0.00,meteohub,2013-03-29 02:52:00,
2013-03-28 19:57:00,57.0,51.6,30.10,WNW,285,4.0,9.0,82,0.00,,,0.00,meteohub,2013-03-29 02:57:00,
2013-03-28 20:02:00,56.8,51.4,30.10,West,276,10.0,11.0,82,0.00,,,0.00,meteohub,2013-03-29 03:02:00,
2013-03-28 20:12:00,56.7,51.6,30.10,WNW,292,5.0,11.0,83,0.00,,,0.00,meteohub,2013-03-29 03:12:00,
2013-03-28 20:17:00,56.7,51.6,30.10,WNW,298,3.0,11.0,83,0.00,,,0.00,meteohub,2013-03-29 03:17:00,
2013-03-28 20:22:00,56.7,51.6,30.10,West,278,2.0,11.0,83,0.00,,,0.00,meteohub,2013-03-29 03:22:00,
2013-03-28 20:27:00,56.5,51.6,30.10,West,278,4.0,9.0,84,0.00,,,0.00,meteohub,2013-03-29 03:27:00,
2013-03-28 20:32:00,56.7,51.8,30.10,WNW,291,3.0,9.0,84,0.00,,,0.00,meteohub,2013-03-29 03:32:00,
2013-03-28 20:37:00,56.7,51.8,30.10,NW,306,2.0,9.0,84,0.00,,,0.00,meteohub,2013-03-29 03:37:00,
2013-03-28 20:47:00,56.7,51.8,30.11,WSW,240,5.0,9.0,84,0.00,,,0.00,meteohub,2013-03-29 03:47:00,
2013-03-28 20:57:00,56.5,51.6,30.11,West,275,4.0,8.0,84,0.00,,,0.00,meteohub,2013-03-29 03:57:00,
2013-03-28 21:02:00,56.3,51.4,30.11,West,269,3.0,8.0,84,0.00,,,0.00,meteohub,2013-03-29 04:02:00,
2013-03-28 21:07:00,56.1,51.6,30.11,West,260,3.0,8.0,85,0.00,,,0.00,meteohub,2013-03-29 04:07:00,
2013-03-28 21:12:00,56.1,51.6,30.12,West,275,6.0,8.0,85,0.00,,,0.00,meteohub,2013-03-29 04:12:00,
2013-03-28 21:17:00,56.1,51.6,30.12,NW,307,2.0,8.0,85,0.00,,,0.00,meteohub,2013-03-29 04:17:00,
2013-03-28 21:22:00,56.1,51.6,30.12,WNW,283,3.0,10.0,85,0.00,,,0.00,meteohub,2013-03-29 04:22:00,
2013-03-28 21:27:00,56.1,51.6,30.12,West,271,7.0,10.0,85,0.00,,,0.00,meteohub,2013-03-29 04:27:00,
2013-03-28 21:32:00,55.9,51.4,30.12,WNW,302,4.0,10.0,85,0.00,,,0.00,meteohub,2013-03-29 04:32:00,
2013-03-28 21:42:00,55.9,51.8,30.12,WNW,286,5.0,13.0,86,0.00,,,0.00,meteohub,2013-03-29 04:42:00,
2013-03-28 21:52:00,55.8,51.6,30.12,NW,312,2.0,10.0,86,0.00,,,0.00,meteohub,2013-03-29 04:52:00,
2013-03-28 21:57:00,55.8,51.6,30.12,West,281,2.0,10.0,86,0.00,,,0.00,meteohub,2013-03-29 04:57:00,
2013-03-28 22:02:00,55.6,51.4,30.12,WNW,298,6.0,10.0,86,0.00,,,0.00,meteohub,2013-03-29 05:02:00,
2013-03-28 22:07:00,55.6,51.8,30.13,West,276,6.0,9.0,87,0.00,,,0.00,meteohub,2013-03-29 05:07:00,
2013-03-28 22:12:00,55.4,51.6,30.13,WNW,298,8.0,9.0,87,0.00,,,0.00,meteohub,2013-03-29 05:12:00,
2013-03-28 22:22:00,55.2,51.4,30.12,WNW,292,4.0,9.0,87,0.00,,,0.00,meteohub,2013-03-29 05:22:00,
2013-03-28 22:32:00,55.2,51.4,30.13,WNW,292,2.0,7.0,87,0.00,,,0.00,meteohub,2013-03-29 05:32:00,
2013-03-28 22:37:00,55.2,51.4,30.13,NW,320,3.0,7.0,87,0.00,,,0.00,meteohub,2013-03-29 05:37:00,
2013-03-28 22:42:00,55.4,51.6,30.13,WSW,254,5.0,6.0,87,0.00,,,0.00,meteohub,2013-03-29 05:42:00,
2013-03-28 22:47:00,55.2,51.4,30.13,West,278,3.0,6.0,87,0.00,,,0.00,meteohub,2013-03-29 05:47:00,
2013-03-28 22:57:00,55.4,51.6,30.12,East,79,3.0,6.0,87,0.00,,,0.00,meteohub,2013-03-29 05:57:00,
2013-03-28 23:02:00,55.4,51.6,30.12,West,264,1.0,6.0,87,0.00,,,0.00,meteohub,2013-03-29 06:02:00,
2013-03-28 23:07:00,55.4,51.6,30.12,West,271,1.0,6.0,87,0.00,,,0.00,meteohub,2013-03-29 06:07:00,
2013-03-28 23:12:00,55.6,51.8,30.12,WSW,254,1.0,6.0,87,0.00,,,0.00,meteohub,2013-03-29 06:12:00,
2013-03-28 23:17:00,55.6,51.8,30.12,NW,313,2.0,4.0,87,0.00,,,0.00,meteohub,2013-03-29 06:17:00,
2013-03-28 23:27:00,55.6,51.8,30.12,West,277,2.0,4.0,87,0.00,,,0.00,meteohub,2013-03-29 06:27:00,
2013-03-28 23:37:00,55.4,51.6,30.12,WNW,299,1.0,6.0,87,0.00,,,0.00,meteohub,2013-03-29 06:37:00,
2013-03-28 23:42:00,55.4,51.6,30.12,NW,320,1.0,6.0,87,0.00,,,0.00,meteohub,2013-03-29 06:42:00,
2013-03-28 23:47:00,55.4,51.6,30.12,NW,315,3.0,6.0,87,0.00,,,0.00,meteohub,2013-03-29 06:47:00,
2013-03-28 23:52:00,55.2,51.4,30.12,WNW,299,4.0,5.0,87,0.00,,,0.00,meteohub,2013-03-29 06:52:00,